sensor_id;sensor_type;location;lat;lon;timestamp;pressure;altitude;pressure_sealevel;temperature;humidity
13800;BME280;6971;50.028;9.258;2024-03-06T00:00:41;99476.06;;;4.74;100.00
13800;BME280;6971;50.028;9.258;2024-03-06T00:05:41;99489.34;;;4.66;100.00
13800;BME280;6971;50.028;9.258;2024-03-06T00:10:42;99485.56;;;4.76;100.00
13800;BME280;6971;50.028;9.258;2024-03-06T00:15:42;99492.50;;;4.77;100.00
13800;BME280;6971;50.028;9.258;2024-03-06T00:20:43;99497.06;;;4.69;100.00
13800;BME280;6971;50.028;9.258;2024-03-06T00:25:44;99498.72;;;4.72;100.00
13800;BME280;6971;50.028;9.258;2024-03-06T00:30:45;99503.28;;;4.65;100.00
13800;BME280;6971;50.028;9.258;2024-03-06T00:35:45;99505.84;;;4.66;100.00
13800;BME280;6971;50.028;9.258;2024-03-06T00:40:45;99511.03;;;4.68;100.00
13800;BME280;6971;50.028;9.258;2024-03-06T00:45:46;99521.72;;;4.59;100.00
13800;BME280;6971;50.028;9.258;2024-03-06T00:50:46;99511.69;;;4.43;100.00
13800;BME280;6971;50.028;9.258;2024-03-06T00:55:46;99523.81;;;4.46;100.00
13800;BME280;6971;50.028;9.258;2024-03-06T01:00:47;99532.28;;;4.54;100.00
13800;BME280;6971;50.028;9.258;2024-03-06T01:05:47;99533.97;;;4.56;100.00
13800;BME280;6971;50.028;9.258;2024-03-06T01:10:47;99541.25;;;4.45;100.00
13800;BME280;6971;50.028;9.258;2024-03-06T01:15:48;99545.91;;;4.32;100.00
13800;BME280;6971;50.028;9.258;2024-03-06T01:20:48;99545.16;;;4.28;100.00
13800;BME280;6971;50.028;9.258;2024-03-06T01:25:49;99552.72;;;4.38;100.00
13800;BME280;6971;50.028;9.258;2024-03-06T01:30:49;99538.88;;;4.36;100.00
13800;BME280;6971;50.028;9.258;2024-03-06T01:35:49;99548.41;;;4.37;100.00
13800;BME280;6971;50.028;9.258;2024-03-06T01:40:50;99540.69;;;4.32;100.00
13800;BME280;6971;50.028;9.258;2024-03-06T01:45:51;99541.56;;;4.33;100.00
13800;BME280;6971;50.028;9.258;2024-03-06T01:50:58;99546.78;;;4.33;100.00
13800;BME280;6971;50.028;9.258;2024-03-06T01:55:59;99542.38;;;4.35;100.00
13800;BME280;6971;50.028;9.258;2024-03-06T02:01:00;99539.19;;;4.23;100.00
13800;BME280;6971;50.028;9.258;2024-03-06T02:06:02;99543.81;;;4.12;100.00
13800;BME280;6971;50.028;9.258;2024-03-06T02:11:03;99548.09;;;4.14;100.00
13800;BME280;6971;50.028;9.258;2024-03-06T02:16:03;99538.03;;;4.00;100.00
13800;BME280;6971;50.028;9.258;2024-03-06T02:21:04;99538.59;;;3.77;100.00
13800;BME280;6971;50.028;9.258;2024-03-06T02:26:07;99537.06;;;3.68;100.00
13800;BME280;6971;50.028;9.258;2024-03-06T02:31:08;99535.28;;;3.70;100.00
13800;BME280;6971;50.028;9.258;2024-03-06T02:36:08;99541.03;;;3.83;100.00
13800;BME280;6971;50.028;9.258;2024-03-06T02:41:09;99538.50;;;3.82;100.00
13800;BME280;6971;50.028;9.258;2024-03-06T02:46:10;99527.44;;;3.72;100.00
13800;BME280;6971;50.028;9.258;2024-03-06T02:51:10;99528.38;;;3.69;100.00
13800;BME280;6971;50.028;9.258;2024-03-06T02:56:18;99537.72;;;3.76;100.00
13800;BME280;6971;50.028;9.258;2024-03-06T03:01:18;99537.22;;;3.62;100.00
13800;BME280;6971;50.028;9.258;2024-03-06T03:06:18;99549.44;;;3.60;100.00
13800;BME280;6971;50.028;9.258;2024-03-06T03:11:19;99546.97;;;3.53;100.00
13800;BME280;6971;50.028;9.258;2024-03-06T03:16:19;99555.72;;;3.49;100.00
13800;BME280;6971;50.028;9.258;2024-03-06T03:21:20;99559.09;;;3.55;100.00
13800;BME280;6971;50.028;9.258;2024-03-06T03:26:21;99565.81;;;3.65;100.00
13800;BME280;6971;50.028;9.258;2024-03-06T03:31:21;99578.03;;;3.61;100.00
13800;BME280;6971;50.028;9.258;2024-03-06T03:36:22;99569.41;;;3.59;100.00
13800;BME280;6971;50.028;9.258;2024-03-06T03:41:22;99576.59;;;3.49;100.00
13800;BME280;6971;50.028;9.258;2024-03-06T03:46:23;99571.38;;;3.49;100.00
13800;BME280;6971;50.028;9.258;2024-03-06T03:51:23;99573.38;;;3.38;100.00
13800;BME280;6971;50.028;9.258;2024-03-06T03:56:23;99569.69;;;3.47;100.00
13800;BME280;6971;50.028;9.258;2024-03-06T04:01:24;99570.69;;;3.41;100.00
13800;BME280;6971;50.028;9.258;2024-03-06T04:06:26;99568.25;;;3.33;100.00
13800;BME280;6971;50.028;9.258;2024-03-06T04:11:26;99574.44;;;3.28;100.00
13800;BME280;6971;50.028;9.258;2024-03-06T04:16:27;99576.13;;;3.30;100.00
13800;BME280;6971;50.028;9.258;2024-03-06T04:21:27;99580.25;;;3.42;100.00
13800;BME280;6971;50.028;9.258;2024-03-06T04:26:27;99584.59;;;3.40;100.00
13800;BME280;6971;50.028;9.258;2024-03-06T04:31:28;99593.06;;;3.51;100.00
13800;BME280;6971;50.028;9.258;2024-03-06T04:36:29;99610.25;;;3.59;100.00
13800;BME280;6971;50.028;9.258;2024-03-06T04:41:29;99610.94;;;3.67;100.00
13800;BME280;6971;50.028;9.258;2024-03-06T04:46:29;99623.00;;;3.73;100.00
13800;BME280;6971;50.028;9.258;2024-03-06T04:51:30;99623.16;;;3.65;100.00
13800;BME280;6971;50.028;9.258;2024-03-06T04:56:30;99638.78;;;3.67;100.00
13800;BME280;6971;50.028;9.258;2024-03-06T05:01:31;99632.69;;;3.66;100.00
13800;BME280;6971;50.028;9.258;2024-03-06T05:06:31;99641.31;;;3.68;100.00
13800;BME280;6971;50.028;9.258;2024-03-06T05:11:31;99651.81;;;3.67;100.00
13800;BME280;6971;50.028;9.258;2024-03-06T05:16:32;99662.38;;;3.59;100.00
13800;BME280;6971;50.028;9.258;2024-03-06T05:21:33;99662.59;;;3.49;100.00
13800;BME280;6971;50.028;9.258;2024-03-06T05:26:33;99677.47;;;3.44;100.00
13800;BME280;6971;50.028;9.258;2024-03-06T05:31:34;99688.34;;;3.65;100.00
13800;BME280;6971;50.028;9.258;2024-03-06T05:36:35;99705.97;;;3.50;100.00
13800;BME280;6971;50.028;9.258;2024-03-06T05:41:35;99709.19;;;3.65;100.00
13800;BME280;6971;50.028;9.258;2024-03-06T05:46:36;99714.59;;;3.56;100.00
13800;BME280;6971;50.028;9.258;2024-03-06T05:51:36;99719.38;;;3.77;100.00
13800;BME280;6971;50.028;9.258;2024-03-06T05:56:37;99715.97;;;3.72;100.00
13800;BME280;6971;50.028;9.258;2024-03-06T06:01:39;99728.00;;;3.79;100.00
13800;BME280;6971;50.028;9.258;2024-03-06T06:06:39;99718.63;;;3.71;100.00
13800;BME280;6971;50.028;9.258;2024-03-06T06:11:39;99731.69;;;3.69;100.00
13800;BME280;6971;50.028;9.258;2024-03-06T06:16:41;99736.72;;;3.78;100.00
13800;BME280;6971;50.028;9.258;2024-03-06T06:21:42;99737.63;;;3.77;100.00
13800;BME280;6971;50.028;9.258;2024-03-06T06:26:44;99726.63;;;3.61;100.00
13800;BME280;6971;50.028;9.258;2024-03-06T06:31:44;99743.09;;;3.63;100.00
13800;BME280;6971;50.028;9.258;2024-03-06T06:36:45;99750.44;;;3.43;100.00
13800;BME280;6971;50.028;9.258;2024-03-06T06:41:46;99760.09;;;3.39;100.00
13800;BME280;6971;50.028;9.258;2024-03-06T06:46:46;99766.34;;;3.74;100.00
13800;BME280;6971;50.028;9.258;2024-03-06T06:51:46;99774.94;;;3.79;100.00
13800;BME280;6971;50.028;9.258;2024-03-06T06:56:49;99778.28;;;3.85;100.00
13800;BME280;6971;50.028;9.258;2024-03-06T07:01:49;99778.97;;;3.95;100.00
13800;BME280;6971;50.028;9.258;2024-03-06T07:06:50;99789.44;;;3.93;100.00
13800;BME280;6971;50.028;9.258;2024-03-06T07:11:50;99783.31;;;3.94;100.00
13800;BME280;6971;50.028;9.258;2024-03-06T07:16:51;99781.28;;;4.09;100.00
13800;BME280;6971;50.028;9.258;2024-03-06T07:21:51;99789.25;;;4.01;100.00
13800;BME280;6971;50.028;9.258;2024-03-06T07:26:52;99796.84;;;4.12;100.00
13800;BME280;6971;50.028;9.258;2024-03-06T07:31:52;99788.28;;;4.07;100.00
13800;BME280;6971;50.028;9.258;2024-03-06T07:36:54;99788.00;;;4.21;100.00
13800;BME280;6971;50.028;9.258;2024-03-06T07:41:54;99788.22;;;4.10;100.00
13800;BME280;6971;50.028;9.258;2024-03-06T07:46:54;99795.63;;;4.28;100.00
13800;BME280;6971;50.028;9.258;2024-03-06T07:51:55;99798.94;;;4.37;100.00
13800;BME280;6971;50.028;9.258;2024-03-06T07:56:55;99803.41;;;4.31;100.00
13800;BME280;6971;50.028;9.258;2024-03-06T08:01:55;99801.41;;;4.43;100.00
13800;BME280;6971;50.028;9.258;2024-03-06T08:06:56;99793.66;;;4.40;100.00
13800;BME280;6971;50.028;9.258;2024-03-06T08:11:56;99812.66;;;4.47;100.00
13800;BME280;6971;50.028;9.258;2024-03-06T08:16:56;99815.00;;;4.57;100.00
13800;BME280;6971;50.028;9.258;2024-03-06T08:21:57;99820.25;;;4.57;100.00
13800;BME280;6971;50.028;9.258;2024-03-06T08:26:57;99823.22;;;4.78;100.00
13800;BME280;6971;50.028;9.258;2024-03-06T08:31:58;99817.94;;;4.81;100.00
13800;BME280;6971;50.028;9.258;2024-03-06T08:36:59;99807.66;;;5.10;100.00
13800;BME280;6971;50.028;9.258;2024-03-06T08:42:00;99822.94;;;4.91;100.00
13800;BME280;6971;50.028;9.258;2024-03-06T08:47:01;99820.75;;;5.08;100.00
13800;BME280;6971;50.028;9.258;2024-03-06T08:52:02;99827.69;;;5.78;100.00
13800;BME280;6971;50.028;9.258;2024-03-06T08:57:03;99830.53;;;5.00;100.00
13800;BME280;6971;50.028;9.258;2024-03-06T09:02:14;99841.13;;;5.30;100.00
13800;BME280;6971;50.028;9.258;2024-03-06T09:07:15;99839.72;;;5.83;100.00
13800;BME280;6971;50.028;9.258;2024-03-06T09:12:16;99840.31;;;5.95;100.00
13800;BME280;6971;50.028;9.258;2024-03-06T09:17:16;99843.88;;;5.59;100.00
13800;BME280;6971;50.028;9.258;2024-03-06T09:22:16;99845.72;;;5.87;100.00
13800;BME280;6971;50.028;9.258;2024-03-06T09:27:17;99840.94;;;5.71;100.00
13800;BME280;6971;50.028;9.258;2024-03-06T09:32:18;99849.19;;;5.89;100.00
13800;BME280;6971;50.028;9.258;2024-03-06T09:37:19;99841.81;;;6.04;100.00
13800;BME280;6971;50.028;9.258;2024-03-06T09:42:20;99842.69;;;6.04;100.00
13800;BME280;6971;50.028;9.258;2024-03-06T09:47:22;99847.53;;;6.17;100.00
13800;BME280;6971;50.028;9.258;2024-03-06T09:52:25;99840.81;;;6.68;100.00
13800;BME280;6971;50.028;9.258;2024-03-06T09:57:26;99840.84;;;6.95;100.00
13800;BME280;6971;50.028;9.258;2024-03-06T10:02:39;99848.75;;;7.21;100.00
13800;BME280;6971;50.028;9.258;2024-03-06T10:07:41;99861.97;;;7.16;100.00
13800;BME280;6971;50.028;9.258;2024-03-06T10:12:41;99856.59;;;7.21;100.00
13800;BME280;6971;50.028;9.258;2024-03-06T10:17:42;99859.88;;;7.27;100.00
13800;BME280;6971;50.028;9.258;2024-03-06T10:22:43;99856.44;;;7.25;100.00
13800;BME280;6971;50.028;9.258;2024-03-06T10:27:43;99862.16;;;7.11;100.00
13800;BME280;6971;50.028;9.258;2024-03-06T10:32:44;99867.97;;;7.21;100.00
13800;BME280;6971;50.028;9.258;2024-03-06T10:37:45;99861.44;;;7.33;100.00
13800;BME280;6971;50.028;9.258;2024-03-06T10:42:46;99876.41;;;7.29;100.00
13800;BME280;6971;50.028;9.258;2024-03-06T10:47:47;99878.00;;;7.34;100.00
13800;BME280;6971;50.028;9.258;2024-03-06T10:52:49;99882.47;;;7.31;100.00
13800;BME280;6971;50.028;9.258;2024-03-06T10:57:53;99879.53;;;7.66;100.00
13800;BME280;6971;50.028;9.258;2024-03-06T11:02:55;99882.66;;;7.78;100.00
13800;BME280;6971;50.028;9.258;2024-03-06T11:07:58;99879.25;;;7.74;100.00
13800;BME280;6971;50.028;9.258;2024-03-06T11:13:01;99873.19;;;7.97;100.00
13800;BME280;6971;50.028;9.258;2024-03-06T11:18:40;99883.97;;;8.39;100.00
13800;BME280;6971;50.028;9.258;2024-03-06T11:24:16;99878.47;;;8.45;100.00
13800;BME280;6971;50.028;9.258;2024-03-06T11:29:18;99884.34;;;8.52;100.00
13800;BME280;6971;50.028;9.258;2024-03-06T11:34:21;99873.38;;;9.52;100.00
13800;BME280;6971;50.028;9.258;2024-03-06T11:39:22;99878.94;;;10.47;100.00
13800;BME280;6971;50.028;9.258;2024-03-06T11:44:23;99884.56;;;11.50;100.00
13800;BME280;6971;50.028;9.258;2024-03-06T11:49:25;99878.09;;;10.26;100.00
13800;BME280;6971;50.028;9.258;2024-03-06T11:54:26;99870.47;;;9.38;100.00
13800;BME280;6971;50.028;9.258;2024-03-06T11:59:31;99878.81;;;9.27;100.00
13800;BME280;6971;50.028;9.258;2024-03-06T12:04:35;99876.25;;;9.25;100.00
13800;BME280;6971;50.028;9.258;2024-03-06T12:09:38;99870.66;;;9.12;100.00
13800;BME280;6971;50.028;9.258;2024-03-06T12:14:40;99868.34;;;9.25;100.00
13800;BME280;6971;50.028;9.258;2024-03-06T12:19:41;99864.81;;;9.47;100.00
13800;BME280;6971;50.028;9.258;2024-03-06T12:24:42;99863.16;;;9.03;100.00
13800;BME280;6971;50.028;9.258;2024-03-06T12:29:43;99865.41;;;8.90;100.00
13800;BME280;6971;50.028;9.258;2024-03-06T12:34:43;99859.22;;;8.91;100.00
13800;BME280;6971;50.028;9.258;2024-03-06T12:39:44;99860.41;;;8.84;100.00
13800;BME280;6971;50.028;9.258;2024-03-06T12:44:44;99859.97;;;8.95;100.00
13800;BME280;6971;50.028;9.258;2024-03-06T12:49:45;99858.56;;;9.50;100.00
13800;BME280;6971;50.028;9.258;2024-03-06T12:54:45;99867.63;;;10.24;100.00
13800;BME280;6971;50.028;9.258;2024-03-06T12:59:45;99856.66;;;9.53;100.00
13800;BME280;6971;50.028;9.258;2024-03-06T13:04:46;99864.19;;;9.42;100.00
13800;BME280;6971;50.028;9.258;2024-03-06T13:09:46;99864.09;;;9.23;100.00
13800;BME280;6971;50.028;9.258;2024-03-06T13:14:47;99860.19;;;9.11;100.00
13800;BME280;6971;50.028;9.258;2024-03-06T13:19:47;99861.06;;;8.89;100.00
13800;BME280;6971;50.028;9.258;2024-03-06T13:24:48;99854.59;;;8.75;100.00
13800;BME280;6971;50.028;9.258;2024-03-06T13:29:48;99856.66;;;8.67;100.00
13800;BME280;6971;50.028;9.258;2024-03-06T13:34:49;99868.88;;;8.68;100.00
13800;BME280;6971;50.028;9.258;2024-03-06T13:39:49;99863.75;;;8.65;100.00
13800;BME280;6971;50.028;9.258;2024-03-06T13:44:50;99869.00;;;8.65;100.00
13800;BME280;6971;50.028;9.258;2024-03-06T13:49:50;99868.66;;;8.74;100.00
13800;BME280;6971;50.028;9.258;2024-03-06T13:54:51;99863.03;;;8.84;100.00
13800;BME280;6971;50.028;9.258;2024-03-06T13:59:51;99873.75;;;8.78;100.00
13800;BME280;6971;50.028;9.258;2024-03-06T14:04:52;99876.69;;;8.70;100.00
13800;BME280;6971;50.028;9.258;2024-03-06T14:09:52;99875.00;;;8.69;100.00
13800;BME280;6971;50.028;9.258;2024-03-06T14:14:52;99877.31;;;8.77;100.00
13800;BME280;6971;50.028;9.258;2024-03-06T14:19:53;99886.78;;;8.81;100.00
13800;BME280;6971;50.028;9.258;2024-03-06T14:24:53;99890.56;;;8.49;100.00
13800;BME280;6971;50.028;9.258;2024-03-06T14:29:54;99889.38;;;8.34;100.00
13800;BME280;6971;50.028;9.258;2024-03-06T14:34:55;99893.50;;;7.92;100.00
13800;BME280;6971;50.028;9.258;2024-03-06T14:39:55;99899.47;;;7.72;100.00
13800;BME280;6971;50.028;9.258;2024-03-06T14:44:55;99901.16;;;7.48;100.00
13800;BME280;6971;50.028;9.258;2024-03-06T14:49:56;99891.00;;;7.64;100.00
13800;BME280;6971;50.028;9.258;2024-03-06T14:54:56;99904.97;;;7.90;100.00
13800;BME280;6971;50.028;9.258;2024-03-06T14:59:56;99893.41;;;7.95;100.00
13800;BME280;6971;50.028;9.258;2024-03-06T15:04:57;99888.81;;;7.77;100.00
13800;BME280;6971;50.028;9.258;2024-03-06T15:09:58;99893.94;;;8.05;100.00
13800;BME280;6971;50.028;9.258;2024-03-06T15:14:59;99896.03;;;7.95;100.00
13800;BME280;6971;50.028;9.258;2024-03-06T15:20:00;99892.97;;;8.08;100.00
13800;BME280;6971;50.028;9.258;2024-03-06T15:25:01;99899.44;;;7.47;100.00
13800;BME280;6971;50.028;9.258;2024-03-06T15:30:02;99904.13;;;7.37;100.00
13800;BME280;6971;50.028;9.258;2024-03-06T15:35:04;99905.41;;;7.52;100.00
13800;BME280;6971;50.028;9.258;2024-03-06T15:40:05;99900.53;;;7.66;100.00
13800;BME280;6971;50.028;9.258;2024-03-06T15:45:06;99903.00;;;7.71;100.00
13800;BME280;6971;50.028;9.258;2024-03-06T15:50:07;99897.38;;;7.82;100.00
13800;BME280;6971;50.028;9.258;2024-03-06T15:55:09;99898.94;;;7.88;100.00
13800;BME280;6971;50.028;9.258;2024-03-06T16:00:10;99908.31;;;7.69;100.00
13800;BME280;6971;50.028;9.258;2024-03-06T16:05:15;99918.19;;;7.61;100.00
13800;BME280;6971;50.028;9.258;2024-03-06T16:10:15;99915.44;;;7.66;100.00
13800;BME280;6971;50.028;9.258;2024-03-06T16:15:15;99930.53;;;7.59;100.00
13800;BME280;6971;50.028;9.258;2024-03-06T16:20:16;99940.00;;;7.63;100.00
13800;BME280;6971;50.028;9.258;2024-03-06T16:25:16;99941.34;;;7.75;100.00
13800;BME280;6971;50.028;9.258;2024-03-06T16:30:17;99943.63;;;7.59;100.00
13800;BME280;6971;50.028;9.258;2024-03-06T16:35:17;99940.53;;;7.73;100.00
13800;BME280;6971;50.028;9.258;2024-03-06T16:40:17;99960.06;;;7.64;100.00
13800;BME280;6971;50.028;9.258;2024-03-06T16:45:18;99958.66;;;7.54;100.00
13800;BME280;6971;50.028;9.258;2024-03-06T16:50:18;99969.44;;;7.44;100.00
13800;BME280;6971;50.028;9.258;2024-03-06T16:55:20;99959.16;;;7.38;100.00
13800;BME280;6971;50.028;9.258;2024-03-06T17:00:20;99966.13;;;7.39;100.00
13800;BME280;6971;50.028;9.258;2024-03-06T17:05:22;99968.25;;;7.28;100.00
13800;BME280;6971;50.028;9.258;2024-03-06T17:10:22;99968.78;;;7.09;100.00
13800;BME280;6971;50.028;9.258;2024-03-06T17:15:23;99969.91;;;6.72;100.00
13800;BME280;6971;50.028;9.258;2024-03-06T17:20:26;99969.34;;;6.60;100.00
13800;BME280;6971;50.028;9.258;2024-03-06T17:25:27;99968.47;;;6.61;100.00
13800;BME280;6971;50.028;9.258;2024-03-06T17:30:27;99974.97;;;6.48;100.00
13800;BME280;6971;50.028;9.258;2024-03-06T17:35:27;99974.81;;;6.21;100.00
13800;BME280;6971;50.028;9.258;2024-03-06T17:40:28;99975.28;;;6.02;100.00
13800;BME280;6971;50.028;9.258;2024-03-06T17:45:28;99987.69;;;5.94;100.00
13800;BME280;6971;50.028;9.258;2024-03-06T17:50:30;99986.28;;;5.80;100.00
13800;BME280;6971;50.028;9.258;2024-03-06T17:55:33;99999.91;;;5.58;100.00
13800;BME280;6971;50.028;9.258;2024-03-06T18:00:33;100007.19;;;5.45;100.00
13800;BME280;6971;50.028;9.258;2024-03-06T18:05:34;100007.59;;;5.28;100.00
13800;BME280;6971;50.028;9.258;2024-03-06T18:10:34;100019.47;;;5.02;100.00
13800;BME280;6971;50.028;9.258;2024-03-06T18:15:35;100016.28;;;4.88;100.00
13800;BME280;6971;50.028;9.258;2024-03-06T18:20:35;100026.41;;;4.59;100.00
13800;BME280;6971;50.028;9.258;2024-03-06T18:25:35;100026.34;;;4.64;100.00
13800;BME280;6971;50.028;9.258;2024-03-06T18:30:36;100032.31;;;4.25;100.00
13800;BME280;6971;50.028;9.258;2024-03-06T18:35:36;100030.34;;;4.36;100.00
13800;BME280;6971;50.028;9.258;2024-03-06T18:40:37;100033.78;;;4.40;100.00
13800;BME280;6971;50.028;9.258;2024-03-06T18:45:37;100038.28;;;4.30;100.00
13800;BME280;6971;50.028;9.258;2024-03-06T18:50:37;100042.19;;;4.05;100.00
13800;BME280;6971;50.028;9.258;2024-03-06T18:55:38;100051.91;;;3.97;100.00
13800;BME280;6971;50.028;9.258;2024-03-06T19:00:38;100044.03;;;4.00;100.00
13800;BME280;6971;50.028;9.258;2024-03-06T19:05:38;100059.69;;;4.00;100.00
13800;BME280;6971;50.028;9.258;2024-03-06T19:10:39;100061.56;;;3.92;100.00
13800;BME280;6971;50.028;9.258;2024-03-06T19:15:39;100058.09;;;3.90;100.00
13800;BME280;6971;50.028;9.258;2024-03-06T19:20:40;100052.13;;;3.83;100.00
13800;BME280;6971;50.028;9.258;2024-03-06T19:25:40;100064.47;;;3.72;100.00
13800;BME280;6971;50.028;9.258;2024-03-06T19:30:40;100067.09;;;3.70;100.00
13800;BME280;6971;50.028;9.258;2024-03-06T19:35:41;100056.84;;;3.58;100.00
13800;BME280;6971;50.028;9.258;2024-03-06T19:40:41;100059.66;;;3.44;100.00
13800;BME280;6971;50.028;9.258;2024-03-06T19:45:42;100064.91;;;3.42;100.00
13800;BME280;6971;50.028;9.258;2024-03-06T19:50:43;100062.75;;;3.09;100.00
13800;BME280;6971;50.028;9.258;2024-03-06T19:55:46;100060.94;;;3.16;100.00
13800;BME280;6971;50.028;9.258;2024-03-06T20:00:48;100060.16;;;3.08;100.00
13800;BME280;6971;50.028;9.258;2024-03-06T20:05:48;100060.34;;;2.92;100.00
13800;BME280;6971;50.028;9.258;2024-03-06T20:10:48;100063.91;;;2.85;100.00
13800;BME280;6971;50.028;9.258;2024-03-06T20:15:49;100069.13;;;2.85;100.00
13800;BME280;6971;50.028;9.258;2024-03-06T20:20:49;100069.25;;;2.72;100.00
13800;BME280;6971;50.028;9.258;2024-03-06T20:25:50;100071.22;;;2.52;100.00
13800;BME280;6971;50.028;9.258;2024-03-06T20:30:50;100074.00;;;2.33;100.00
13800;BME280;6971;50.028;9.258;2024-03-06T20:35:52;100077.50;;;2.32;100.00
13800;BME280;6971;50.028;9.258;2024-03-06T20:40:53;100075.59;;;2.46;100.00
13800;BME280;6971;50.028;9.258;2024-03-06T20:45:53;100087.09;;;2.22;100.00
13800;BME280;6971;50.028;9.258;2024-03-06T20:50:54;100078.50;;;2.15;100.00
13800;BME280;6971;50.028;9.258;2024-03-06T20:55:55;100079.38;;;2.16;100.00
13800;BME280;6971;50.028;9.258;2024-03-06T21:00:55;100077.69;;;2.08;100.00
13800;BME280;6971;50.028;9.258;2024-03-06T21:05:56;100084.75;;;1.92;100.00
13800;BME280;6971;50.028;9.258;2024-03-06T21:10:56;100080.44;;;1.90;100.00
13800;BME280;6971;50.028;9.258;2024-03-06T21:15:58;100083.22;;;1.63;100.00
13800;BME280;6971;50.028;9.258;2024-03-06T21:21:00;100088.41;;;1.63;100.00
13800;BME280;6971;50.028;9.258;2024-03-06T21:26:00;100085.03;;;1.50;100.00
13800;BME280;6971;50.028;9.258;2024-03-06T21:31:00;100077.25;;;1.47;100.00
13800;BME280;6971;50.028;9.258;2024-03-06T21:36:01;100079.00;;;1.47;100.00
13800;BME280;6971;50.028;9.258;2024-03-06T21:41:01;100090.25;;;1.52;100.00
13800;BME280;6971;50.028;9.258;2024-03-06T21:46:03;100083.34;;;1.46;100.00
13800;BME280;6971;50.028;9.258;2024-03-06T21:51:03;100085.16;;;1.27;100.00
13800;BME280;6971;50.028;9.258;2024-03-06T21:56:03;100087.03;;;1.03;100.00
13800;BME280;6971;50.028;9.258;2024-03-06T22:01:04;100093.09;;;0.99;100.00
13800;BME280;6971;50.028;9.258;2024-03-06T22:06:05;100091.34;;;1.01;100.00
13800;BME280;6971;50.028;9.258;2024-03-06T22:11:05;100090.56;;;0.77;100.00
13800;BME280;6971;50.028;9.258;2024-03-06T22:16:11;100081.91;;;0.81;100.00
13800;BME280;6971;50.028;9.258;2024-03-06T22:21:12;100091.44;;;0.76;100.00
13800;BME280;6971;50.028;9.258;2024-03-06T22:26:13;100091.44;;;0.70;100.00
13800;BME280;6971;50.028;9.258;2024-03-06T22:31:14;100099.22;;;0.70;100.00
13800;BME280;6971;50.028;9.258;2024-03-06T22:36:15;100105.31;;;0.61;100.00
13800;BME280;6971;50.028;9.258;2024-03-06T22:41:20;100109.66;;;0.51;100.00
13800;BME280;6971;50.028;9.258;2024-03-06T22:46:21;100113.13;;;0.34;100.00
13800;BME280;6971;50.028;9.258;2024-03-06T22:51:22;100111.41;;;0.27;100.00
13800;BME280;6971;50.028;9.258;2024-03-06T22:56:23;100109.66;;;0.38;100.00
13800;BME280;6971;50.028;9.258;2024-03-06T23:01:24;100112.25;;;0.35;100.00
13800;BME280;6971;50.028;9.258;2024-03-06T23:06:24;100107.94;;;0.25;100.00
13800;BME280;6971;50.028;9.258;2024-03-06T23:11:25;100109.66;;;0.26;100.00
13800;BME280;6971;50.028;9.258;2024-03-06T23:16:25;100111.41;;;0.21;100.00
13800;BME280;6971;50.028;9.258;2024-03-06T23:21:25;100120.06;;;0.12;100.00
13800;BME280;6971;50.028;9.258;2024-03-06T23:26:26;100118.31;;;0.12;100.00
13800;BME280;6971;50.028;9.258;2024-03-06T23:31:26;100111.41;;;0.18;100.00
13800;BME280;6971;50.028;9.258;2024-03-06T23:36:27;100116.59;;;0.15;100.00
13800;BME280;6971;50.028;9.258;2024-03-06T23:41:27;100108.81;;;0.15;100.00
13800;BME280;6971;50.028;9.258;2024-03-06T23:46:29;100113.13;;;0.06;100.00
13800;BME280;6971;50.028;9.258;2024-03-06T23:51:29;100117.47;;;0.12;100.00
13800;BME280;6971;50.028;9.258;2024-03-06T23:56:29;100113.13;;;0.12;100.00
